createdAt,value
2022-08-04T00:01:34.753Z,100.00
2022-08-04T00:06:54.483Z,100.00
2022-08-04T00:12:02.352Z,100.00
2022-08-04T00:17:07.241Z,100.00
2022-08-04T00:22:12.791Z,100.00
2022-08-04T00:27:17.460Z,100.00
2022-08-04T00:32:34.125Z,100.00
2022-08-04T00:37:39.727Z,100.00
2022-08-04T00:42:58.924Z,100.00
2022-08-04T00:48:14.788Z,100.00
2022-08-04T00:53:26.461Z,100.00
2022-08-04T00:58:43.608Z,98.78
2022-08-04T01:03:58.120Z,97.33
2022-08-04T01:09:10.993Z,96.79
2022-08-04T01:15:03.747Z,95.77
2022-08-04T01:20:09.658Z,97.30
2022-08-04T01:25:38.471Z,100.00
2022-08-04T01:30:46.951Z,100.00
2022-08-04T01:35:52.730Z,100.00
2022-08-04T01:41:00.242Z,100.00
2022-08-04T01:46:06.004Z,100.00
2022-08-04T01:51:11.090Z,100.00
2022-08-04T01:56:14.139Z,100.00
2022-08-04T02:01:18.088Z,100.00
2022-08-04T02:06:33.673Z,100.00
2022-08-04T02:11:36.275Z,100.00
2022-08-04T02:16:45.775Z,100.00
2022-08-04T02:21:58.635Z,100.00
2022-08-04T02:27:04.149Z,100.00
2022-08-04T02:32:16.292Z,100.00
2022-08-04T02:37:21.707Z,100.00
2022-08-04T02:42:24.537Z,100.00
2022-08-04T02:48:08.199Z,100.00
2022-08-04T02:52:53.219Z,100.00
2022-08-04T02:57:59.207Z,100.00
2022-08-04T03:03:17.133Z,100.00
2022-08-04T03:08:47.304Z,100.00
2022-08-04T03:14:20.237Z,100.00
2022-08-04T03:19:55.612Z,100.00
2022-08-04T03:25:35.135Z,100.00
2022-08-04T03:31:25.019Z,100.00
2022-08-04T03:37:04.035Z,100.00
2022-08-04T03:42:28.644Z,100.00
2022-08-04T03:47:59.720Z,99.97
2022-08-04T03:53:26.256Z,99.93
2022-08-04T03:58:53.791Z,100.00
2022-08-04T04:04:11.060Z,100.00
2022-08-04T04:10:05.855Z,99.71
2022-08-04T04:15:20.607Z,100.00
2022-08-04T04:20:54.284Z,100.00
2022-08-04T04:26:07.796Z,100.00
2022-08-04T04:31:34.436Z,100.00
2022-08-04T04:36:50.276Z,100.00
2022-08-04T04:42:08.404Z,100.00
2022-08-04T04:47:18.802Z,100.00
2022-08-04T04:52:46.659Z,100.00
2022-08-04T04:57:55.273Z,100.00
2022-08-04T05:03:12.155Z,100.00
2022-08-04T05:08:44.188Z,100.00
2022-08-04T05:14:37.121Z,100.00
2022-08-04T05:19:23.865Z,100.00
2022-08-04T05:24:28.738Z,100.00
2022-08-04T05:29:47.329Z,100.00
2022-08-04T05:34:59.614Z,100.00
2022-08-04T05:40:07.211Z,100.00
2022-08-04T05:45:12.221Z,100.00
2022-08-04T05:50:15.455Z,100.00
2022-08-04T05:55:48.864Z,99.74
2022-08-04T06:00:43.316Z,100.00
2022-08-04T06:05:55.993Z,100.00
2022-08-04T06:11:03.103Z,98.23
2022-08-04T06:16:09.795Z,97.69
2022-08-04T06:21:33.689Z,95.62
2022-08-04T06:26:37.487Z,94.08
2022-08-04T06:32:31.689Z,95.02
2022-08-04T06:37:10.733Z,94.67
2022-08-04T06:42:21.453Z,94.25
2022-08-04T06:47:30.049Z,93.98
2022-08-04T06:52:32.966Z,93.90
2022-08-04T06:57:37.267Z,93.82
2022-08-04T07:02:46.109Z,93.52
2022-08-04T07:07:57.012Z,93.60
2022-08-04T07:13:02.301Z,93.09
2022-08-04T07:18:06.852Z,92.62
2022-08-04T07:23:11.229Z,92.98
2022-08-04T07:28:14.578Z,92.54
2022-08-04T07:33:19.425Z,91.56
2022-08-04T07:38:27.398Z,91.25
2022-08-04T07:43:31.904Z,90.45
2022-08-04T07:48:35.974Z,89.44
2022-08-04T07:53:55.342Z,89.78
2022-08-04T07:58:59.009Z,90.77
2022-08-04T08:04:04.006Z,89.86
2022-08-04T08:09:13.165Z,90.12
2022-08-04T08:14:18.334Z,87.11
2022-08-04T08:19:22.535Z,89.08
2022-08-04T08:24:25.373Z,87.05
2022-08-04T08:29:29.868Z,87.43
2022-08-04T08:34:34.310Z,87.53
2022-08-04T08:39:40.748Z,87.89
2022-08-04T08:45:19.403Z,87.02
2022-08-04T08:50:51.924Z,83.49
2022-08-04T08:56:13.016Z,84.70
2022-08-04T09:01:28.971Z,86.69
2022-08-04T09:06:48.846Z,84.20
2022-08-04T09:12:05.457Z,84.74
2022-08-04T09:17:14.805Z,83.88
2022-08-04T09:22:23.495Z,85.21
2022-08-04T09:27:35.660Z,82.99
2022-08-04T09:32:45.344Z,82.91
2022-08-04T09:38:01.360Z,82.44
2022-08-04T09:43:15.897Z,83.42
2022-08-04T09:48:29.387Z,81.46
2022-08-04T09:53:42.870Z,82.48
2022-08-04T09:58:54.784Z,81.71
2022-08-04T10:04:01.599Z,83.67
2022-08-04T10:09:22.009Z,82.69
2022-08-04T10:14:39.142Z,77.57
2022-08-04T10:19:42.938Z,75.97
2022-08-04T10:25:02.421Z,75.89
2022-08-04T10:30:11.822Z,74.14
2022-08-04T10:35:16.783Z,74.74
2022-08-04T10:40:40.764Z,75.32
2022-08-04T10:45:48.717Z,76.95
2022-08-04T10:51:07.883Z,73.38
2022-08-04T10:56:18.850Z,72.71
2022-08-04T11:02:01.231Z,73.14
2022-08-04T11:06:49.261Z,73.70
2022-08-04T11:12:02.088Z,74.57
2022-08-04T11:17:08.319Z,73.95
2022-08-04T11:22:15.293Z,73.53
2022-08-04T11:27:30.317Z,73.43
2022-08-04T11:32:47.036Z,75.46
2022-08-04T11:37:53.045Z,74.77
2022-08-04T11:43:01.884Z,74.18
2022-08-04T11:48:10.401Z,76.26
2022-08-04T11:53:19.322Z,81.42
2022-08-04T11:58:24.083Z,83.66
2022-08-04T12:03:37.906Z,85.72
2022-08-04T12:09:10.427Z,86.43
2022-08-04T12:14:29.053Z,88.68
2022-08-04T12:19:47.999Z,85.42
2022-08-04T12:25:05.913Z,85.92
2022-08-04T12:31:03.064Z,86.06
2022-08-04T12:36:10.271Z,85.56
2022-08-04T12:41:04.372Z,86.10
2022-08-04T12:46:11.245Z,85.34
2022-08-04T12:52:06.034Z,85.24
2022-08-04T12:56:37.868Z,84.55
2022-08-04T13:02:08.919Z,84.40
2022-08-04T13:07:16.169Z,85.22
2022-08-04T13:12:25.994Z,86.52
2022-08-04T13:17:49.088Z,86.07
2022-08-04T13:22:52.782Z,83.61
2022-08-04T13:27:57.904Z,84.47
2022-08-04T13:33:04.497Z,84.96
2022-08-04T13:38:11.931Z,86.20
2022-08-04T13:44:15.520Z,89.97
2022-08-04T13:49:08.978Z,86.23
2022-08-04T13:54:12.230Z,84.31
2022-08-04T13:59:17.419Z,82.15
2022-08-04T14:04:24.442Z,80.71
2022-08-04T14:09:35.277Z,81.78
2022-08-04T14:14:46.782Z,82.25
2022-08-04T14:19:53.456Z,82.87
2022-08-04T14:24:57.357Z,81.90
2022-08-04T14:30:00.024Z,85.28
2022-08-04T14:35:11.862Z,78.26
2022-08-04T14:40:30.675Z,78.41
2022-08-04T14:45:35.616Z,82.30
2022-08-04T14:50:42.337Z,86.83
2022-08-04T14:55:47.530Z,83.86
2022-08-04T15:00:51.907Z,83.58
2022-08-04T15:06:02.960Z,84.68
2022-08-04T15:11:09.451Z,85.38
2022-08-04T15:16:12.284Z,86.58
2022-08-04T15:21:16.707Z,88.87
2022-08-04T15:26:24.703Z,88.29
2022-08-04T15:32:07.086Z,89.76
2022-08-04T15:36:57.695Z,89.44
2022-08-04T15:42:20.537Z,90.08
2022-08-04T15:47:23.957Z,91.12
2022-08-04T15:52:32.063Z,92.01
2022-08-04T15:58:00.575Z,92.15
2022-08-04T16:03:03.223Z,93.21
2022-08-04T16:08:19.345Z,93.31
2022-08-04T16:13:23.816Z,93.91
2022-08-04T16:18:40.918Z,93.29
2022-08-04T16:24:18.228Z,90.39
2022-08-04T16:29:38.787Z,90.24
2022-08-04T16:34:49.833Z,90.24
2022-08-04T16:40:35.918Z,90.46
2022-08-04T16:45:41.813Z,90.97
2022-08-04T16:50:53.197Z,91.55
2022-08-04T16:55:58.676Z,90.38
2022-08-04T17:01:08.631Z,91.65
2022-08-04T17:06:14.320Z,92.26
2022-08-04T17:11:18.283Z,92.10
2022-08-04T17:16:20.981Z,92.26
2022-08-04T17:21:28.844Z,92.37
2022-08-04T17:26:40.227Z,94.53
2022-08-04T17:31:45.820Z,95.05
2022-08-04T17:36:49.375Z,94.57
2022-08-04T17:41:58.386Z,95.05
2022-08-04T17:47:12.712Z,96.41
2022-08-04T17:52:41.284Z,96.33
2022-08-04T17:57:52.445Z,98.33
2022-08-04T18:02:55.487Z,99.45
2022-08-04T18:08:38.069Z,99.42
2022-08-04T18:19:14.413Z,100.00
2022-08-04T18:24:17.944Z,98.64
2022-08-04T18:34:54.962Z,98.89
2022-08-04T18:40:26.144Z,99.41
2022-08-04T18:45:23.983Z,99.71
2022-08-04T18:51:09.462Z,100.00
2022-08-04T18:56:00.536Z,100.00
2022-08-04T19:01:13.642Z,100.00
2022-08-04T19:06:16.611Z,100.00
2022-08-04T19:11:52.787Z,100.00
2022-08-04T19:16:52.672Z,100.00
2022-08-04T19:27:20.145Z,100.00
2022-08-04T19:32:25.180Z,100.00
2022-08-04T19:37:58.203Z,100.00
2022-08-04T19:42:59.765Z,100.00
2022-08-04T19:48:18.763Z,100.00
2022-08-04T19:53:37.738Z,100.00
2022-08-04T19:58:48.111Z,100.00
2022-08-04T20:04:09.697Z,100.00
2022-08-04T20:09:24.821Z,96.97
2022-08-04T20:14:32.364Z,93.57
2022-08-04T20:19:37.575Z,91.10
2022-08-04T20:24:48.014Z,90.73
2022-08-04T20:29:57.419Z,90.11
2022-08-04T20:35:01.998Z,90.34
2022-08-04T20:40:05.643Z,89.68
2022-08-04T20:45:09.929Z,90.39
2022-08-04T20:50:29.607Z,91.59
2022-08-04T20:55:32.866Z,92.15
2022-08-04T21:00:55.918Z,91.35
2022-08-04T21:06:01.685Z,92.33
2022-08-04T21:11:06.754Z,91.77
2022-08-04T21:16:09.964Z,92.58
2022-08-04T21:21:35.673Z,92.14
2022-08-04T21:26:38.477Z,92.51
2022-08-04T21:31:51.135Z,92.28
2022-08-04T21:36:58.124Z,93.42
2022-08-04T21:47:24.035Z,93.03
2022-08-04T21:52:29.609Z,93.11
2022-08-04T21:57:32.308Z,93.32
2022-08-04T22:02:35.289Z,94.38
2022-08-04T22:07:50.061Z,100.00
2022-08-04T22:12:53.660Z,100.00
2022-08-04T22:17:56.224Z,100.00
2022-08-04T22:23:06.208Z,100.00
2022-08-04T22:28:18.662Z,100.00
2022-08-04T22:33:22.780Z,100.00
2022-08-04T22:38:42.400Z,100.00
2022-08-04T22:43:55.022Z,100.00
2022-08-04T22:48:58.175Z,100.00
2022-08-04T22:54:02.332Z,100.00
2022-08-04T22:59:14.857Z,100.00
2022-08-04T23:04:17.468Z,100.00
2022-08-04T23:09:21.973Z,100.00
2022-08-04T23:14:25.085Z,100.00
2022-08-04T23:19:30.131Z,100.00
2022-08-04T23:24:35.862Z,100.00
2022-08-04T23:29:53.224Z,100.00
2022-08-04T23:34:57.443Z,100.00
2022-08-04T23:40:14.461Z,100.00
2022-08-04T23:46:04.486Z,100.00
2022-08-04T23:50:46.497Z,100.00
2022-08-04T23:55:50.419Z,100.00
